sensor_id;sensor_type;location;lat;lon;timestamp;P1;durP1;ratioP1;P2;durP2;ratioP2
28766;SDS011;15921;52.034;20.650;2023-03-19T00:01:51;53.22;;;21.77;;
28766;SDS011;15921;52.034;20.650;2023-03-19T00:04:16;55.55;;;20.65;;
28766;SDS011;15921;52.034;20.650;2023-03-19T00:06:42;48.17;;;20.75;;
28766;SDS011;15921;52.034;20.650;2023-03-19T00:09:08;50.80;;;21.48;;
28766;SDS011;15921;52.034;20.650;2023-03-19T00:11:34;54.08;;;21.23;;
28766;SDS011;15921;52.034;20.650;2023-03-19T00:14:00;48.67;;;21.25;;
28766;SDS011;15921;52.034;20.650;2023-03-19T00:16:26;50.90;;;20.63;;
28766;SDS011;15921;52.034;20.650;2023-03-19T00:18:52;44.15;;;19.90;;
28766;SDS011;15921;52.034;20.650;2023-03-19T00:21:18;44.33;;;19.98;;
28766;SDS011;15921;52.034;20.650;2023-03-19T00:23:45;51.30;;;20.00;;
28766;SDS011;15921;52.034;20.650;2023-03-19T00:26:11;47.20;;;20.80;;
28766;SDS011;15921;52.034;20.650;2023-03-19T00:28:36;50.20;;;20.95;;
28766;SDS011;15921;52.034;20.650;2023-03-19T00:31:09;41.30;;;18.48;;
28766;SDS011;15921;52.034;20.650;2023-03-19T00:33:36;50.55;;;20.00;;
28766;SDS011;15921;52.034;20.650;2023-03-19T00:36:03;46.75;;;18.90;;
28766;SDS011;15921;52.034;20.650;2023-03-19T00:38:30;44.90;;;19.48;;
28766;SDS011;15921;52.034;20.650;2023-03-19T00:40:56;48.78;;;20.08;;
28766;SDS011;15921;52.034;20.650;2023-03-19T00:43:21;45.72;;;18.50;;
28766;SDS011;15921;52.034;20.650;2023-03-19T00:45:47;45.88;;;19.00;;
28766;SDS011;15921;52.034;20.650;2023-03-19T00:48:13;48.35;;;19.73;;
28766;SDS011;15921;52.034;20.650;2023-03-19T00:50:38;45.42;;;19.80;;
28766;SDS011;15921;52.034;20.650;2023-03-19T00:53:05;40.22;;;18.17;;
28766;SDS011;15921;52.034;20.650;2023-03-19T00:55:31;49.88;;;19.30;;
28766;SDS011;15921;52.034;20.650;2023-03-19T00:57:57;38.85;;;17.75;;
28766;SDS011;15921;52.034;20.650;2023-03-19T01:00:22;48.33;;;19.77;;
28766;SDS011;15921;52.034;20.650;2023-03-19T01:02:48;41.92;;;18.48;;
28766;SDS011;15921;52.034;20.650;2023-03-19T01:05:14;49.13;;;20.40;;
28766;SDS011;15921;52.034;20.650;2023-03-19T01:07:40;43.63;;;19.02;;
28766;SDS011;15921;52.034;20.650;2023-03-19T01:10:06;45.75;;;19.58;;
28766;SDS011;15921;52.034;20.650;2023-03-19T01:12:32;47.25;;;19.65;;
28766;SDS011;15921;52.034;20.650;2023-03-19T01:14:58;42.65;;;18.20;;
28766;SDS011;15921;52.034;20.650;2023-03-19T01:17:24;44.53;;;19.20;;
28766;SDS011;15921;52.034;20.650;2023-03-19T01:19:50;43.17;;;17.83;;
28766;SDS011;15921;52.034;20.650;2023-03-19T01:22:15;43.83;;;18.83;;
28766;SDS011;15921;52.034;20.650;2023-03-19T01:24:41;46.83;;;18.58;;
28766;SDS011;15921;52.034;20.650;2023-03-19T01:27:07;47.80;;;20.02;;
28766;SDS011;15921;52.034;20.650;2023-03-19T01:29:34;43.97;;;19.25;;
28766;SDS011;15921;52.034;20.650;2023-03-19T01:32:00;45.67;;;19.70;;
28766;SDS011;15921;52.034;20.650;2023-03-19T01:34:26;45.80;;;18.08;;
28766;SDS011;15921;52.034;20.650;2023-03-19T01:36:51;45.67;;;18.63;;
28766;SDS011;15921;52.034;20.650;2023-03-19T01:39:17;41.42;;;18.05;;
28766;SDS011;15921;52.034;20.650;2023-03-19T01:41:43;44.53;;;19.08;;
28766;SDS011;15921;52.034;20.650;2023-03-19T01:44:25;46.60;;;19.88;;
28766;SDS011;15921;52.034;20.650;2023-03-19T01:46:52;46.28;;;19.17;;
28766;SDS011;15921;52.034;20.650;2023-03-19T01:49:19;41.95;;;17.90;;
28766;SDS011;15921;52.034;20.650;2023-03-19T01:51:47;48.38;;;19.48;;
28766;SDS011;15921;52.034;20.650;2023-03-19T01:54:14;43.00;;;18.85;;
28766;SDS011;15921;52.034;20.650;2023-03-19T01:56:43;42.70;;;18.35;;
28766;SDS011;15921;52.034;20.650;2023-03-19T01:59:21;42.50;;;19.40;;
28766;SDS011;15921;52.034;20.650;2023-03-19T02:02:25;49.05;;;20.15;;
28766;SDS011;15921;52.034;20.650;2023-03-19T02:04:53;53.10;;;19.60;;
28766;SDS011;15921;52.034;20.650;2023-03-19T02:07:24;40.80;;;19.42;;
28766;SDS011;15921;52.034;20.650;2023-03-19T02:09:51;43.30;;;18.70;;
28766;SDS011;15921;52.034;20.650;2023-03-19T02:12:18;42.28;;;19.17;;
28766;SDS011;15921;52.034;20.650;2023-03-19T02:14:43;50.47;;;18.63;;
28766;SDS011;15921;52.034;20.650;2023-03-19T02:17:09;42.85;;;18.90;;
28766;SDS011;15921;52.034;20.650;2023-03-19T02:19:49;47.67;;;20.35;;
28766;SDS011;15921;52.034;20.650;2023-03-19T02:22:19;46.25;;;19.60;;
28766;SDS011;15921;52.034;20.650;2023-03-19T02:27:38;45.42;;;19.45;;
28766;SDS011;15921;52.034;20.650;2023-03-19T02:30:17;44.80;;;19.33;;
28766;SDS011;15921;52.034;20.650;2023-03-19T02:32:46;44.75;;;20.02;;
28766;SDS011;15921;52.034;20.650;2023-03-19T02:35:11;51.50;;;20.42;;
28766;SDS011;15921;52.034;20.650;2023-03-19T02:37:37;51.03;;;20.10;;
28766;SDS011;15921;52.034;20.650;2023-03-19T02:40:04;49.75;;;21.40;;
28766;SDS011;15921;52.034;20.650;2023-03-19T02:42:35;48.33;;;19.00;;
28766;SDS011;15921;52.034;20.650;2023-03-19T02:45:00;48.35;;;19.15;;
28766;SDS011;15921;52.034;20.650;2023-03-19T02:47:26;50.03;;;19.33;;
28766;SDS011;15921;52.034;20.650;2023-03-19T02:49:52;51.10;;;20.40;;
28766;SDS011;15921;52.034;20.650;2023-03-19T02:52:18;46.00;;;19.45;;
28766;SDS011;15921;52.034;20.650;2023-03-19T02:54:45;45.20;;;18.25;;
28766;SDS011;15921;52.034;20.650;2023-03-19T02:57:11;45.10;;;19.27;;
28766;SDS011;15921;52.034;20.650;2023-03-19T02:59:37;46.22;;;18.35;;
28766;SDS011;15921;52.034;20.650;2023-03-19T03:02:03;44.03;;;18.35;;
28766;SDS011;15921;52.034;20.650;2023-03-19T03:04:29;42.42;;;19.17;;
28766;SDS011;15921;52.034;20.650;2023-03-19T03:06:56;45.83;;;19.70;;
28766;SDS011;15921;52.034;20.650;2023-03-19T03:09:23;47.85;;;20.42;;
28766;SDS011;15921;52.034;20.650;2023-03-19T03:11:49;43.72;;;18.63;;
28766;SDS011;15921;52.034;20.650;2023-03-19T03:14:15;46.53;;;20.15;;
28766;SDS011;15921;52.034;20.650;2023-03-19T03:16:40;46.15;;;19.77;;
28766;SDS011;15921;52.034;20.650;2023-03-19T03:19:06;44.08;;;18.45;;
28766;SDS011;15921;52.034;20.650;2023-03-19T03:21:32;43.83;;;19.23;;
28766;SDS011;15921;52.034;20.650;2023-03-19T03:23:58;41.08;;;18.75;;
28766;SDS011;15921;52.034;20.650;2023-03-19T03:26:24;40.90;;;17.58;;
28766;SDS011;15921;52.034;20.650;2023-03-19T03:28:49;49.72;;;18.45;;
28766;SDS011;15921;52.034;20.650;2023-03-19T03:31:16;48.55;;;19.08;;
28766;SDS011;15921;52.034;20.650;2023-03-19T03:33:42;41.22;;;18.65;;
28766;SDS011;15921;52.034;20.650;2023-03-19T03:36:08;43.08;;;17.90;;
28766;SDS011;15921;52.034;20.650;2023-03-19T03:38:33;37.35;;;17.13;;
28766;SDS011;15921;52.034;20.650;2023-03-19T03:40:59;42.60;;;17.63;;
28766;SDS011;15921;52.034;20.650;2023-03-19T03:43:25;42.15;;;16.75;;
28766;SDS011;15921;52.034;20.650;2023-03-19T03:45:51;40.78;;;16.48;;
28766;SDS011;15921;52.034;20.650;2023-03-19T03:48:17;40.95;;;16.00;;
28766;SDS011;15921;52.034;20.650;2023-03-19T03:50:43;38.00;;;16.48;;
28766;SDS011;15921;52.034;20.650;2023-03-19T03:53:08;38.88;;;16.45;;
28766;SDS011;15921;52.034;20.650;2023-03-19T03:55:37;37.53;;;16.33;;
28766;SDS011;15921;52.034;20.650;2023-03-19T03:58:03;40.00;;;16.35;;
28766;SDS011;15921;52.034;20.650;2023-03-19T04:00:29;36.25;;;15.85;;
28766;SDS011;15921;52.034;20.650;2023-03-19T04:02:55;34.13;;;15.60;;
28766;SDS011;15921;52.034;20.650;2023-03-19T04:05:21;36.10;;;15.32;;
28766;SDS011;15921;52.034;20.650;2023-03-19T04:07:47;31.77;;;14.00;;
28766;SDS011;15921;52.034;20.650;2023-03-19T04:10:13;30.67;;;13.48;;
28766;SDS011;15921;52.034;20.650;2023-03-19T04:12:39;34.25;;;14.75;;
28766;SDS011;15921;52.034;20.650;2023-03-19T04:15:05;35.95;;;14.88;;
28766;SDS011;15921;52.034;20.650;2023-03-19T04:17:34;37.53;;;15.32;;
28766;SDS011;15921;52.034;20.650;2023-03-19T04:20:00;39.20;;;15.32;;
28766;SDS011;15921;52.034;20.650;2023-03-19T04:22:26;34.58;;;14.40;;
28766;SDS011;15921;52.034;20.650;2023-03-19T04:24:53;32.72;;;14.90;;
28766;SDS011;15921;52.034;20.650;2023-03-19T04:27:18;35.22;;;16.00;;
28766;SDS011;15921;52.034;20.650;2023-03-19T04:29:45;35.97;;;14.75;;
28766;SDS011;15921;52.034;20.650;2023-03-19T04:32:10;37.22;;;14.57;;
28766;SDS011;15921;52.034;20.650;2023-03-19T04:34:36;37.45;;;15.18;;
28766;SDS011;15921;52.034;20.650;2023-03-19T04:37:02;39.65;;;14.60;;
28766;SDS011;15921;52.034;20.650;2023-03-19T04:39:28;29.23;;;13.90;;
28766;SDS011;15921;52.034;20.650;2023-03-19T04:41:53;35.80;;;13.70;;
28766;SDS011;15921;52.034;20.650;2023-03-19T04:44:19;26.52;;;13.07;;
28766;SDS011;15921;52.034;20.650;2023-03-19T04:46:45;34.22;;;14.35;;
28766;SDS011;15921;52.034;20.650;2023-03-19T04:49:12;35.40;;;14.30;;
28766;SDS011;15921;52.034;20.650;2023-03-19T04:51:38;32.08;;;14.38;;
28766;SDS011;15921;52.034;20.650;2023-03-19T04:54:04;31.02;;;14.10;;
28766;SDS011;15921;52.034;20.650;2023-03-19T04:56:30;33.05;;;13.82;;
28766;SDS011;15921;52.034;20.650;2023-03-19T04:58:56;36.05;;;15.23;;
28766;SDS011;15921;52.034;20.650;2023-03-19T05:01:22;35.08;;;14.73;;
28766;SDS011;15921;52.034;20.650;2023-03-19T05:03:48;39.05;;;15.32;;
28766;SDS011;15921;52.034;20.650;2023-03-19T05:06:14;31.98;;;15.10;;
28766;SDS011;15921;52.034;20.650;2023-03-19T05:08:41;36.25;;;14.10;;
28766;SDS011;15921;52.034;20.650;2023-03-19T05:11:07;33.95;;;14.13;;
28766;SDS011;15921;52.034;20.650;2023-03-19T05:13:33;38.33;;;16.02;;
28766;SDS011;15921;52.034;20.650;2023-03-19T05:15:59;37.35;;;15.98;;
28766;SDS011;15921;52.034;20.650;2023-03-19T05:18:24;33.70;;;15.18;;
28766;SDS011;15921;52.034;20.650;2023-03-19T05:20:51;32.70;;;15.07;;
28766;SDS011;15921;52.034;20.650;2023-03-19T05:23:18;36.22;;;15.55;;
28766;SDS011;15921;52.034;20.650;2023-03-19T05:25:44;41.10;;;16.33;;
28766;SDS011;15921;52.034;20.650;2023-03-19T05:28:11;35.88;;;16.27;;
28766;SDS011;15921;52.034;20.650;2023-03-19T05:30:37;39.60;;;16.70;;
28766;SDS011;15921;52.034;20.650;2023-03-19T05:33:03;47.95;;;17.67;;
28766;SDS011;15921;52.034;20.650;2023-03-19T05:35:29;34.55;;;15.70;;
28766;SDS011;15921;52.034;20.650;2023-03-19T05:37:55;38.75;;;16.52;;
28766;SDS011;15921;52.034;20.650;2023-03-19T05:40:21;38.80;;;17.55;;
28766;SDS011;15921;52.034;20.650;2023-03-19T05:42:48;41.42;;;16.00;;
28766;SDS011;15921;52.034;20.650;2023-03-19T05:45:14;33.90;;;16.00;;
28766;SDS011;15921;52.034;20.650;2023-03-19T05:47:41;37.72;;;17.08;;
28766;SDS011;15921;52.034;20.650;2023-03-19T05:50:09;40.45;;;16.73;;
28766;SDS011;15921;52.034;20.650;2023-03-19T05:52:36;40.45;;;17.15;;
28766;SDS011;15921;52.034;20.650;2023-03-19T05:55:01;43.28;;;17.75;;
28766;SDS011;15921;52.034;20.650;2023-03-19T05:57:28;39.40;;;17.45;;
28766;SDS011;15921;52.034;20.650;2023-03-19T05:59:54;40.35;;;16.88;;
28766;SDS011;15921;52.034;20.650;2023-03-19T06:02:20;38.03;;;16.63;;
28766;SDS011;15921;52.034;20.650;2023-03-19T06:04:46;38.17;;;17.30;;
28766;SDS011;15921;52.034;20.650;2023-03-19T06:07:12;39.95;;;16.65;;
28766;SDS011;15921;52.034;20.650;2023-03-19T06:09:37;38.45;;;17.70;;
28766;SDS011;15921;52.034;20.650;2023-03-19T06:12:05;36.03;;;16.30;;
28766;SDS011;15921;52.034;20.650;2023-03-19T06:14:31;34.22;;;16.25;;
28766;SDS011;15921;52.034;20.650;2023-03-19T06:16:57;35.63;;;15.98;;
28766;SDS011;15921;52.034;20.650;2023-03-19T06:19:22;37.53;;;16.65;;
28766;SDS011;15921;52.034;20.650;2023-03-19T06:21:48;34.60;;;15.55;;
28766;SDS011;15921;52.034;20.650;2023-03-19T06:24:14;32.35;;;15.38;;
28766;SDS011;15921;52.034;20.650;2023-03-19T06:26:39;34.60;;;14.90;;
28766;SDS011;15921;52.034;20.650;2023-03-19T06:29:05;37.47;;;15.43;;
28766;SDS011;15921;52.034;20.650;2023-03-19T06:31:31;33.20;;;15.00;;
28766;SDS011;15921;52.034;20.650;2023-03-19T06:33:57;32.67;;;14.68;;
28766;SDS011;15921;52.034;20.650;2023-03-19T06:36:23;31.98;;;14.50;;
28766;SDS011;15921;52.034;20.650;2023-03-19T06:38:48;31.77;;;14.02;;
28766;SDS011;15921;52.034;20.650;2023-03-19T06:41:14;28.85;;;13.32;;
28766;SDS011;15921;52.034;20.650;2023-03-19T06:43:40;36.08;;;13.68;;
28766;SDS011;15921;52.034;20.650;2023-03-19T06:46:06;29.08;;;13.68;;
28766;SDS011;15921;52.034;20.650;2023-03-19T06:48:33;25.13;;;12.48;;
28766;SDS011;15921;52.034;20.650;2023-03-19T06:50:59;25.45;;;12.60;;
28766;SDS011;15921;52.034;20.650;2023-03-19T06:53:25;28.23;;;12.60;;
28766;SDS011;15921;52.034;20.650;2023-03-19T06:55:52;30.63;;;14.52;;
28766;SDS011;15921;52.034;20.650;2023-03-19T06:58:17;28.20;;;13.82;;
28766;SDS011;15921;52.034;20.650;2023-03-19T07:00:43;29.15;;;13.48;;
28766;SDS011;15921;52.034;20.650;2023-03-19T07:03:09;26.35;;;13.43;;
28766;SDS011;15921;52.034;20.650;2023-03-19T07:05:35;28.92;;;13.90;;
28766;SDS011;15921;52.034;20.650;2023-03-19T07:08:00;33.83;;;14.73;;
28766;SDS011;15921;52.034;20.650;2023-03-19T07:10:27;27.73;;;14.00;;
28766;SDS011;15921;52.034;20.650;2023-03-19T07:12:52;25.55;;;12.35;;
28766;SDS011;15921;52.034;20.650;2023-03-19T07:15:18;30.10;;;13.88;;
28766;SDS011;15921;52.034;20.650;2023-03-19T07:17:45;28.85;;;13.88;;
28766;SDS011;15921;52.034;20.650;2023-03-19T07:20:12;28.23;;;13.15;;
28766;SDS011;15921;52.034;20.650;2023-03-19T07:22:38;30.30;;;13.38;;
28766;SDS011;15921;52.034;20.650;2023-03-19T07:25:04;30.48;;;14.40;;
28766;SDS011;15921;52.034;20.650;2023-03-19T07:27:30;27.25;;;13.60;;
28766;SDS011;15921;52.034;20.650;2023-03-19T07:29:56;26.23;;;12.52;;
28766;SDS011;15921;52.034;20.650;2023-03-19T07:32:22;26.45;;;12.10;;
28766;SDS011;15921;52.034;20.650;2023-03-19T07:34:48;23.08;;;12.15;;
28766;SDS011;15921;52.034;20.650;2023-03-19T07:37:13;26.33;;;12.70;;
28766;SDS011;15921;52.034;20.650;2023-03-19T07:39:39;26.70;;;12.35;;
28766;SDS011;15921;52.034;20.650;2023-03-19T07:42:05;24.23;;;12.60;;
28766;SDS011;15921;52.034;20.650;2023-03-19T07:44:31;29.70;;;13.48;;
28766;SDS011;15921;52.034;20.650;2023-03-19T07:46:57;28.33;;;12.23;;
28766;SDS011;15921;52.034;20.650;2023-03-19T07:49:23;27.80;;;11.90;;
28766;SDS011;15921;52.034;20.650;2023-03-19T07:51:49;27.27;;;12.52;;
28766;SDS011;15921;52.034;20.650;2023-03-19T07:54:15;21.75;;;11.98;;
28766;SDS011;15921;52.034;20.650;2023-03-19T07:56:41;24.27;;;12.38;;
28766;SDS011;15921;52.034;20.650;2023-03-19T07:59:06;27.55;;;12.45;;
28766;SDS011;15921;52.034;20.650;2023-03-19T08:01:32;22.95;;;11.80;;
28766;SDS011;15921;52.034;20.650;2023-03-19T08:03:58;22.80;;;12.45;;
28766;SDS011;15921;52.034;20.650;2023-03-19T08:06:23;25.13;;;12.25;;
28766;SDS011;15921;52.034;20.650;2023-03-19T08:08:49;24.55;;;12.75;;
28766;SDS011;15921;52.034;20.650;2023-03-19T08:11:15;27.25;;;13.30;;
28766;SDS011;15921;52.034;20.650;2023-03-19T08:13:41;23.23;;;11.50;;
28766;SDS011;15921;52.034;20.650;2023-03-19T08:16:07;25.10;;;11.90;;
28766;SDS011;15921;52.034;20.650;2023-03-19T08:18:33;25.73;;;12.85;;
28766;SDS011;15921;52.034;20.650;2023-03-19T08:20:59;26.48;;;13.13;;
28766;SDS011;15921;52.034;20.650;2023-03-19T08:23:24;27.42;;;13.30;;
28766;SDS011;15921;52.034;20.650;2023-03-19T08:25:51;24.13;;;12.23;;
28766;SDS011;15921;52.034;20.650;2023-03-19T08:28:18;25.73;;;12.65;;
28766;SDS011;15921;52.034;20.650;2023-03-19T08:30:44;24.98;;;12.00;;
28766;SDS011;15921;52.034;20.650;2023-03-19T08:33:10;27.00;;;14.20;;
28766;SDS011;15921;52.034;20.650;2023-03-19T08:35:36;24.45;;;13.30;;
28766;SDS011;15921;52.034;20.650;2023-03-19T08:38:01;26.10;;;12.52;;
28766;SDS011;15921;52.034;20.650;2023-03-19T08:40:27;23.45;;;12.52;;
28766;SDS011;15921;52.034;20.650;2023-03-19T08:42:53;31.55;;;13.15;;
28766;SDS011;15921;52.034;20.650;2023-03-19T08:45:20;25.27;;;12.60;;
28766;SDS011;15921;52.034;20.650;2023-03-19T08:47:47;29.75;;;13.30;;
28766;SDS011;15921;52.034;20.650;2023-03-19T08:50:13;24.67;;;12.98;;
28766;SDS011;15921;52.034;20.650;2023-03-19T08:52:39;22.92;;;11.95;;
28766;SDS011;15921;52.034;20.650;2023-03-19T08:55:05;26.63;;;12.30;;
28766;SDS011;15921;52.034;20.650;2023-03-19T08:57:32;28.42;;;12.98;;
28766;SDS011;15921;52.034;20.650;2023-03-19T08:59:58;26.60;;;12.38;;
28766;SDS011;15921;52.034;20.650;2023-03-19T09:02:24;24.23;;;11.50;;
28766;SDS011;15921;52.034;20.650;2023-03-19T09:04:50;23.80;;;12.20;;
28766;SDS011;15921;52.034;20.650;2023-03-19T09:07:16;29.05;;;12.88;;
28766;SDS011;15921;52.034;20.650;2023-03-19T09:09:42;24.05;;;12.23;;
28766;SDS011;15921;52.034;20.650;2023-03-19T09:12:09;25.77;;;12.50;;
28766;SDS011;15921;52.034;20.650;2023-03-19T09:14:36;21.63;;;11.60;;
28766;SDS011;15921;52.034;20.650;2023-03-19T09:17:03;21.73;;;11.23;;
28766;SDS011;15921;52.034;20.650;2023-03-19T09:19:29;24.02;;;11.95;;
28766;SDS011;15921;52.034;20.650;2023-03-19T09:21:54;23.90;;;12.55;;
28766;SDS011;15921;52.034;20.650;2023-03-19T09:24:20;25.95;;;11.90;;
28766;SDS011;15921;52.034;20.650;2023-03-19T09:26:46;26.10;;;11.57;;
28766;SDS011;15921;52.034;20.650;2023-03-19T09:29:13;27.90;;;12.95;;
28766;SDS011;15921;52.034;20.650;2023-03-19T09:31:39;21.17;;;11.38;;
28766;SDS011;15921;52.034;20.650;2023-03-19T09:34:05;25.75;;;12.18;;
28766;SDS011;15921;52.034;20.650;2023-03-19T09:36:33;24.48;;;11.70;;
28766;SDS011;15921;52.034;20.650;2023-03-19T09:38:59;27.58;;;12.13;;
28766;SDS011;15921;52.034;20.650;2023-03-19T09:42:08;19.75;;;10.88;;
28766;SDS011;15921;52.034;20.650;2023-03-19T09:44:30;21.40;;;12.05;;
28766;SDS011;15921;52.034;20.650;2023-03-19T09:49:49;17.17;;;10.15;;
28766;SDS011;15921;52.034;20.650;2023-03-19T09:54:49;20.10;;;9.90;;
28766;SDS011;15921;52.034;20.650;2023-03-19T09:57:16;23.73;;;10.75;;
28766;SDS011;15921;52.034;20.650;2023-03-19T09:59:43;21.52;;;11.32;;
28766;SDS011;15921;52.034;20.650;2023-03-19T10:02:30;19.63;;;10.80;;
28766;SDS011;15921;52.034;20.650;2023-03-19T10:16:04;17.73;;;9.82;;
28766;SDS011;15921;52.034;20.650;2023-03-19T10:18:38;18.85;;;11.20;;
28766;SDS011;15921;52.034;20.650;2023-03-19T10:26:19;19.02;;;11.07;;
28766;SDS011;15921;52.034;20.650;2023-03-19T10:34:33;20.95;;;10.57;;
28766;SDS011;15921;52.034;20.650;2023-03-19T10:39:51;21.45;;;10.73;;
28766;SDS011;15921;52.034;20.650;2023-03-19T10:48:00;21.92;;;10.93;;
28766;SDS011;15921;52.034;20.650;2023-03-19T10:50:33;19.55;;;10.30;;
28766;SDS011;15921;52.034;20.650;2023-03-19T10:53:04;17.57;;;10.27;;
28766;SDS011;15921;52.034;20.650;2023-03-19T10:55:36;19.70;;;10.13;;
28766;SDS011;15921;52.034;20.650;2023-03-19T10:58:13;21.38;;;10.23;;
28766;SDS011;15921;52.034;20.650;2023-03-19T11:00:43;18.25;;;9.63;;
28766;SDS011;15921;52.034;20.650;2023-03-19T11:06:38;18.10;;;10.30;;
28766;SDS011;15921;52.034;20.650;2023-03-19T11:11:42;21.50;;;10.27;;
28766;SDS011;15921;52.034;20.650;2023-03-19T11:19:20;24.83;;;10.70;;
28766;SDS011;15921;52.034;20.650;2023-03-19T11:24:27;17.52;;;10.02;;
28766;SDS011;15921;52.034;20.650;2023-03-19T11:26:57;18.13;;;10.10;;
28766;SDS011;15921;52.034;20.650;2023-03-19T11:29:25;24.27;;;10.60;;
28766;SDS011;15921;52.034;20.650;2023-03-19T11:34:44;17.88;;;10.10;;
28766;SDS011;15921;52.034;20.650;2023-03-19T11:37:52;14.82;;;9.15;;
28766;SDS011;15921;52.034;20.650;2023-03-19T11:46:06;20.35;;;10.43;;
28766;SDS011;15921;52.034;20.650;2023-03-19T11:57:07;17.10;;;10.18;;
28766;SDS011;15921;52.034;20.650;2023-03-19T12:02:53;18.50;;;9.75;;
28766;SDS011;15921;52.034;20.650;2023-03-19T12:05:32;14.52;;;8.30;;
28766;SDS011;15921;52.034;20.650;2023-03-19T12:13:22;18.13;;;10.40;;
28766;SDS011;15921;52.034;20.650;2023-03-19T12:16:12;14.80;;;8.52;;
28766;SDS011;15921;52.034;20.650;2023-03-19T12:28:02;15.20;;;9.25;;
28766;SDS011;15921;52.034;20.650;2023-03-19T12:33:57;19.55;;;9.55;;
28766;SDS011;15921;52.034;20.650;2023-03-19T12:36:26;19.75;;;9.48;;
28766;SDS011;15921;52.034;20.650;2023-03-19T12:39:01;18.95;;;11.10;;
28766;SDS011;15921;52.034;20.650;2023-03-19T12:41:35;28.27;;;17.25;;
28766;SDS011;15921;52.034;20.650;2023-03-19T12:44:10;26.83;;;15.73;;
28766;SDS011;15921;52.034;20.650;2023-03-19T13:00:18;18.88;;;9.32;;
28766;SDS011;15921;52.034;20.650;2023-03-19T13:02:55;17.60;;;9.95;;
28766;SDS011;15921;52.034;20.650;2023-03-19T13:05:35;16.23;;;9.23;;
28766;SDS011;15921;52.034;20.650;2023-03-19T13:10:56;17.77;;;9.95;;
28766;SDS011;15921;52.034;20.650;2023-03-19T13:16:29;16.15;;;9.63;;
28766;SDS011;15921;52.034;20.650;2023-03-19T13:19:09;15.35;;;9.80;;
28766;SDS011;15921;52.034;20.650;2023-03-19T13:21:45;18.05;;;9.57;;
28766;SDS011;15921;52.034;20.650;2023-03-19T13:24:26;18.38;;;9.80;;
28766;SDS011;15921;52.034;20.650;2023-03-19T13:26:54;16.50;;;9.45;;
28766;SDS011;15921;52.034;20.650;2023-03-19T13:29:29;14.80;;;9.20;;
28766;SDS011;15921;52.034;20.650;2023-03-19T13:32:21;16.63;;;9.48;;
28766;SDS011;15921;52.034;20.650;2023-03-19T13:35:07;16.08;;;8.80;;
28766;SDS011;15921;52.034;20.650;2023-03-19T13:37:49;17.52;;;9.77;;
28766;SDS011;15921;52.034;20.650;2023-03-19T13:40:41;17.52;;;9.80;;
28766;SDS011;15921;52.034;20.650;2023-03-19T13:51:01;16.00;;;9.30;;
28766;SDS011;15921;52.034;20.650;2023-03-19T13:59:33;17.20;;;9.13;;
28766;SDS011;15921;52.034;20.650;2023-03-19T14:02:45;13.95;;;8.35;;
28766;SDS011;15921;52.034;20.650;2023-03-19T14:04:50;13.82;;;8.63;;
28766;SDS011;15921;52.034;20.650;2023-03-19T14:07:21;18.27;;;8.90;;
28766;SDS011;15921;52.034;20.650;2023-03-19T14:17:37;17.80;;;9.38;;
28766;SDS011;15921;52.034;20.650;2023-03-19T14:25:24;17.45;;;8.38;;
28766;SDS011;15921;52.034;20.650;2023-03-19T14:27:53;16.58;;;8.45;;
28766;SDS011;15921;52.034;20.650;2023-03-19T14:32:51;19.10;;;9.98;;
28766;SDS011;15921;52.034;20.650;2023-03-19T14:35:22;18.23;;;9.23;;
28766;SDS011;15921;52.034;20.650;2023-03-19T14:37:50;15.82;;;9.15;;
28766;SDS011;15921;52.034;20.650;2023-03-19T14:40:21;16.63;;;8.23;;
28766;SDS011;15921;52.034;20.650;2023-03-19T14:42:59;19.40;;;9.30;;
28766;SDS011;15921;52.034;20.650;2023-03-19T14:56:50;13.20;;;8.55;;
28766;SDS011;15921;52.034;20.650;2023-03-19T14:59:15;13.73;;;8.35;;
28766;SDS011;15921;52.034;20.650;2023-03-19T15:01:49;15.80;;;8.98;;
28766;SDS011;15921;52.034;20.650;2023-03-19T15:04:19;22.25;;;9.57;;
28766;SDS011;15921;52.034;20.650;2023-03-19T15:06:51;19.05;;;8.80;;
28766;SDS011;15921;52.034;20.650;2023-03-19T15:12:03;16.48;;;9.07;;
28766;SDS011;15921;52.034;20.650;2023-03-19T15:14:43;13.10;;;8.35;;
28766;SDS011;15921;52.034;20.650;2023-03-19T15:17:20;17.95;;;9.32;;
28766;SDS011;15921;52.034;20.650;2023-03-19T15:19:49;18.25;;;8.65;;
28766;SDS011;15921;52.034;20.650;2023-03-19T15:22:20;12.85;;;7.82;;
28766;SDS011;15921;52.034;20.650;2023-03-19T15:24:50;15.45;;;8.95;;
28766;SDS011;15921;52.034;20.650;2023-03-19T15:29:42;16.73;;;9.18;;
28766;SDS011;15921;52.034;20.650;2023-03-19T15:32:08;19.77;;;10.65;;
28766;SDS011;15921;52.034;20.650;2023-03-19T15:34:34;21.90;;;9.20;;
28766;SDS011;15921;52.034;20.650;2023-03-19T15:37:06;22.83;;;9.40;;
28766;SDS011;15921;52.034;20.650;2023-03-19T15:39:37;23.05;;;9.60;;
28766;SDS011;15921;52.034;20.650;2023-03-19T15:42:11;25.33;;;10.77;;
28766;SDS011;15921;52.034;20.650;2023-03-19T15:44:41;16.15;;;8.73;;
28766;SDS011;15921;52.034;20.650;2023-03-19T15:47:11;16.02;;;9.27;;
28766;SDS011;15921;52.034;20.650;2023-03-19T15:49:53;16.95;;;10.07;;
28766;SDS011;15921;52.034;20.650;2023-03-19T15:52:26;16.20;;;9.05;;
28766;SDS011;15921;52.034;20.650;2023-03-19T15:54:56;20.88;;;9.07;;
28766;SDS011;15921;52.034;20.650;2023-03-19T15:57:24;18.13;;;8.70;;
28766;SDS011;15921;52.034;20.650;2023-03-19T15:59:53;17.63;;;9.80;;
28766;SDS011;15921;52.034;20.650;2023-03-19T16:02:30;18.17;;;9.45;;
28766;SDS011;15921;52.034;20.650;2023-03-19T16:04:57;25.48;;;9.50;;
28766;SDS011;15921;52.034;20.650;2023-03-19T16:07:26;17.40;;;8.80;;
28766;SDS011;15921;52.034;20.650;2023-03-19T16:21:29;20.15;;;8.93;;
28766;SDS011;15921;52.034;20.650;2023-03-19T16:24:02;17.83;;;7.95;;
28766;SDS011;15921;52.034;20.650;2023-03-19T16:26:36;16.75;;;8.65;;
28766;SDS011;15921;52.034;20.650;2023-03-19T16:29:42;21.20;;;8.60;;
28766;SDS011;15921;52.034;20.650;2023-03-19T16:34:40;25.40;;;10.05;;
28766;SDS011;15921;52.034;20.650;2023-03-19T16:37:37;16.67;;;7.95;;
28766;SDS011;15921;52.034;20.650;2023-03-19T16:47:53;27.42;;;9.38;;
28766;SDS011;15921;52.034;20.650;2023-03-19T16:50:21;28.98;;;11.18;;
28766;SDS011;15921;52.034;20.650;2023-03-19T16:53:03;34.25;;;11.65;;
28766;SDS011;15921;52.034;20.650;2023-03-19T16:55:34;37.92;;;15.10;;
28766;SDS011;15921;52.034;20.650;2023-03-19T16:58:01;55.10;;;21.02;;
28766;SDS011;15921;52.034;20.650;2023-03-19T17:00:36;58.92;;;25.70;;
28766;SDS011;15921;52.034;20.650;2023-03-19T17:03:02;64.47;;;25.08;;
28766;SDS011;15921;52.034;20.650;2023-03-19T17:05:34;67.22;;;23.83;;
28766;SDS011;15921;52.034;20.650;2023-03-19T17:08:00;60.63;;;22.67;;
28766;SDS011;15921;52.034;20.650;2023-03-19T17:10:26;40.85;;;21.30;;
28766;SDS011;15921;52.034;20.650;2023-03-19T17:12:54;49.88;;;21.10;;
28766;SDS011;15921;52.034;20.650;2023-03-19T17:18:03;40.10;;;19.80;;
28766;SDS011;15921;52.034;20.650;2023-03-19T17:20:47;47.80;;;23.00;;